sensor_id;sensor_type;location;lat;lon;timestamp;temperature;humidity
21678;DHT22;11000;50.360;7.582;2022-09-02T00:02:02;20.40;99.90
21678;DHT22;11000;50.360;7.582;2022-09-02T00:04:25;20.40;99.90
21678;DHT22;11000;50.360;7.582;2022-09-02T00:06:47;20.30;99.90
21678;DHT22;11000;50.360;7.582;2022-09-02T00:09:10;20.20;99.90
21678;DHT22;11000;50.360;7.582;2022-09-02T00:11:32;20.30;99.90
21678;DHT22;11000;50.360;7.582;2022-09-02T00:13:54;20.30;99.90
21678;DHT22;11000;50.360;7.582;2022-09-02T00:16:14;20.30;99.90
21678;DHT22;11000;50.360;7.582;2022-09-02T00:18:36;20.30;99.90
21678;DHT22;11000;50.360;7.582;2022-09-02T00:20:57;20.30;99.90
21678;DHT22;11000;50.360;7.582;2022-09-02T00:23:18;20.10;99.90
21678;DHT22;11000;50.360;7.582;2022-09-02T00:25:39;20.10;99.90
21678;DHT22;11000;50.360;7.582;2022-09-02T00:28:00;20.20;99.90
21678;DHT22;11000;50.360;7.582;2022-09-02T00:30:20;20.10;99.90
21678;DHT22;11000;50.360;7.582;2022-09-02T00:32:41;20.10;99.90
21678;DHT22;11000;50.360;7.582;2022-09-02T00:35:02;20.10;99.90
21678;DHT22;11000;50.360;7.582;2022-09-02T00:37:24;20.10;99.90
21678;DHT22;11000;50.360;7.582;2022-09-02T00:39:45;20.00;99.90
21678;DHT22;11000;50.360;7.582;2022-09-02T00:42:05;20.00;99.90
21678;DHT22;11000;50.360;7.582;2022-09-02T00:44:26;20.00;99.90
21678;DHT22;11000;50.360;7.582;2022-09-02T00:46:47;19.90;99.90
21678;DHT22;11000;50.360;7.582;2022-09-02T00:49:22;20.00;99.90
21678;DHT22;11000;50.360;7.582;2022-09-02T00:52:02;19.90;99.90
21678;DHT22;11000;50.360;7.582;2022-09-02T00:54:25;19.90;99.90
21678;DHT22;11000;50.360;7.582;2022-09-02T00:56:47;19.80;99.90
21678;DHT22;11000;50.360;7.582;2022-09-02T00:59:16;19.70;99.90
21678;DHT22;11000;50.360;7.582;2022-09-02T01:01:39;19.70;99.90
21678;DHT22;11000;50.360;7.582;2022-09-02T01:03:59;19.60;99.90
21678;DHT22;11000;50.360;7.582;2022-09-02T01:06:23;19.60;99.90
21678;DHT22;11000;50.360;7.582;2022-09-02T01:08:47;19.40;99.90
21678;DHT22;11000;50.360;7.582;2022-09-02T01:11:09;19.50;99.90
21678;DHT22;11000;50.360;7.582;2022-09-02T01:13:34;19.50;99.90
21678;DHT22;11000;50.360;7.582;2022-09-02T01:16:01;19.40;99.90
21678;DHT22;11000;50.360;7.582;2022-09-02T01:18:26;19.30;99.90
21678;DHT22;11000;50.360;7.582;2022-09-02T01:20:48;19.30;99.90
21678;DHT22;11000;50.360;7.582;2022-09-02T01:23:09;19.30;99.90
21678;DHT22;11000;50.360;7.582;2022-09-02T01:25:32;19.30;99.90
21678;DHT22;11000;50.360;7.582;2022-09-02T01:28:01;19.20;99.90
21678;DHT22;11000;50.360;7.582;2022-09-02T01:30:24;19.10;99.90
21678;DHT22;11000;50.360;7.582;2022-09-02T01:32:45;19.10;99.90
21678;DHT22;11000;50.360;7.582;2022-09-02T01:35:06;19.10;99.90
21678;DHT22;11000;50.360;7.582;2022-09-02T01:37:27;19.20;99.90
21678;DHT22;11000;50.360;7.582;2022-09-02T01:39:48;19.10;99.90
21678;DHT22;11000;50.360;7.582;2022-09-02T01:42:08;19.00;99.90
21678;DHT22;11000;50.360;7.582;2022-09-02T01:44:29;18.90;99.90
21678;DHT22;11000;50.360;7.582;2022-09-02T01:46:49;18.80;99.90
21678;DHT22;11000;50.360;7.582;2022-09-02T01:49:10;18.80;99.90
21678;DHT22;11000;50.360;7.582;2022-09-02T01:51:31;18.80;99.90
21678;DHT22;11000;50.360;7.582;2022-09-02T01:53:52;18.70;99.90
21678;DHT22;11000;50.360;7.582;2022-09-02T01:56:13;18.60;99.90
21678;DHT22;11000;50.360;7.582;2022-09-02T01:58:34;18.60;99.90
21678;DHT22;11000;50.360;7.582;2022-09-02T02:00:55;18.60;99.90
21678;DHT22;11000;50.360;7.582;2022-09-02T02:03:16;18.60;99.90
21678;DHT22;11000;50.360;7.582;2022-09-02T02:05:36;18.60;99.90
21678;DHT22;11000;50.360;7.582;2022-09-02T02:07:57;18.50;99.90
21678;DHT22;11000;50.360;7.582;2022-09-02T02:10:19;18.40;99.90
21678;DHT22;11000;50.360;7.582;2022-09-02T02:12:40;18.40;99.90
21678;DHT22;11000;50.360;7.582;2022-09-02T02:15:04;18.40;99.90
21678;DHT22;11000;50.360;7.582;2022-09-02T02:17:25;18.40;99.90
21678;DHT22;11000;50.360;7.582;2022-09-02T02:19:45;18.40;99.90
21678;DHT22;11000;50.360;7.582;2022-09-02T02:22:06;18.50;99.90
21678;DHT22;11000;50.360;7.582;2022-09-02T02:24:27;18.40;99.90
21678;DHT22;11000;50.360;7.582;2022-09-02T02:26:47;18.40;99.90
21678;DHT22;11000;50.360;7.582;2022-09-02T02:29:08;18.40;99.90
21678;DHT22;11000;50.360;7.582;2022-09-02T02:31:29;18.40;99.90
21678;DHT22;11000;50.360;7.582;2022-09-02T02:33:50;18.40;99.90
21678;DHT22;11000;50.360;7.582;2022-09-02T02:36:10;18.30;99.90
21678;DHT22;11000;50.360;7.582;2022-09-02T02:38:33;18.00;99.90
21678;DHT22;11000;50.360;7.582;2022-09-02T02:40:55;18.10;99.90
21678;DHT22;11000;50.360;7.582;2022-09-02T02:43:16;18.00;99.90
21678;DHT22;11000;50.360;7.582;2022-09-02T02:45:37;18.00;99.90
21678;DHT22;11000;50.360;7.582;2022-09-02T02:47:58;17.90;99.90
21678;DHT22;11000;50.360;7.582;2022-09-02T02:50:20;17.80;99.90
21678;DHT22;11000;50.360;7.582;2022-09-02T02:52:41;17.80;99.90
21678;DHT22;11000;50.360;7.582;2022-09-02T02:55:03;17.70;99.90
21678;DHT22;11000;50.360;7.582;2022-09-02T02:57:25;17.70;99.90
21678;DHT22;11000;50.360;7.582;2022-09-02T02:59:46;17.80;99.90
21678;DHT22;11000;50.360;7.582;2022-09-02T03:02:06;17.80;99.90
21678;DHT22;11000;50.360;7.582;2022-09-02T03:04:27;17.90;99.90
21678;DHT22;11000;50.360;7.582;2022-09-02T03:06:47;17.90;99.90
21678;DHT22;11000;50.360;7.582;2022-09-02T03:09:08;17.70;99.90
21678;DHT22;11000;50.360;7.582;2022-09-02T03:11:28;17.70;99.90
21678;DHT22;11000;50.360;7.582;2022-09-02T03:13:49;17.70;99.90
21678;DHT22;11000;50.360;7.582;2022-09-02T03:16:10;17.70;99.90
21678;DHT22;11000;50.360;7.582;2022-09-02T03:18:31;17.70;99.90
21678;DHT22;11000;50.360;7.582;2022-09-02T03:20:52;17.70;99.90
21678;DHT22;11000;50.360;7.582;2022-09-02T03:23:13;17.70;99.90
21678;DHT22;11000;50.360;7.582;2022-09-02T03:25:34;17.70;99.90
21678;DHT22;11000;50.360;7.582;2022-09-02T03:27:55;17.70;99.90
21678;DHT22;11000;50.360;7.582;2022-09-02T03:30:20;17.60;99.90
21678;DHT22;11000;50.360;7.582;2022-09-02T03:32:41;17.60;99.90
21678;DHT22;11000;50.360;7.582;2022-09-02T03:35:04;17.60;99.90
21678;DHT22;11000;50.360;7.582;2022-09-02T03:37:26;17.60;99.90
21678;DHT22;11000;50.360;7.582;2022-09-02T03:39:47;17.60;99.90
21678;DHT22;11000;50.360;7.582;2022-09-02T03:42:08;17.60;99.90
21678;DHT22;11000;50.360;7.582;2022-09-02T03:44:28;17.50;99.90
21678;DHT22;11000;50.360;7.582;2022-09-02T03:46:49;17.60;99.90
21678;DHT22;11000;50.360;7.582;2022-09-02T03:49:10;17.60;99.90
21678;DHT22;11000;50.360;7.582;2022-09-02T03:51:30;17.50;99.90
21678;DHT22;11000;50.360;7.582;2022-09-02T03:53:51;17.50;99.90
21678;DHT22;11000;50.360;7.582;2022-09-02T03:56:13;17.40;99.90
21678;DHT22;11000;50.360;7.582;2022-09-02T03:58:34;17.40;99.90
21678;DHT22;11000;50.360;7.582;2022-09-02T04:00:55;17.40;99.90
21678;DHT22;11000;50.360;7.582;2022-09-02T04:03:16;17.40;99.90
21678;DHT22;11000;50.360;7.582;2022-09-02T04:05:37;17.30;99.90
21678;DHT22;11000;50.360;7.582;2022-09-02T04:07:59;17.30;99.90
21678;DHT22;11000;50.360;7.582;2022-09-02T04:10:21;17.30;99.90
21678;DHT22;11000;50.360;7.582;2022-09-02T04:12:41;17.20;99.90
21678;DHT22;11000;50.360;7.582;2022-09-02T04:15:04;17.20;99.90
21678;DHT22;11000;50.360;7.582;2022-09-02T04:17:25;17.20;99.90
21678;DHT22;11000;50.360;7.582;2022-09-02T04:19:45;17.20;99.90
21678;DHT22;11000;50.360;7.582;2022-09-02T04:22:07;17.10;99.90
21678;DHT22;11000;50.360;7.582;2022-09-02T04:24:27;17.10;99.90
21678;DHT22;11000;50.360;7.582;2022-09-02T04:26:48;17.00;99.90
21678;DHT22;11000;50.360;7.582;2022-09-02T04:29:09;17.00;99.90
21678;DHT22;11000;50.360;7.582;2022-09-02T04:31:30;17.00;99.90
21678;DHT22;11000;50.360;7.582;2022-09-02T04:33:51;17.00;99.90
21678;DHT22;11000;50.360;7.582;2022-09-02T04:36:14;17.00;99.90
21678;DHT22;11000;50.360;7.582;2022-09-02T04:38:35;16.90;99.90
21678;DHT22;11000;50.360;7.582;2022-09-02T04:40:55;16.90;99.90
21678;DHT22;11000;50.360;7.582;2022-09-02T04:43:17;16.80;99.90
21678;DHT22;11000;50.360;7.582;2022-09-02T04:45:42;16.90;99.90
21678;DHT22;11000;50.360;7.582;2022-09-02T04:48:03;16.80;99.90
21678;DHT22;11000;50.360;7.582;2022-09-02T04:50:23;16.80;99.90
21678;DHT22;11000;50.360;7.582;2022-09-02T04:52:44;16.70;99.90
21678;DHT22;11000;50.360;7.582;2022-09-02T04:55:05;16.70;99.90
21678;DHT22;11000;50.360;7.582;2022-09-02T04:57:26;16.70;99.90
21678;DHT22;11000;50.360;7.582;2022-09-02T04:59:47;16.60;99.90
21678;DHT22;11000;50.360;7.582;2022-09-02T05:02:07;16.60;99.90
21678;DHT22;11000;50.360;7.582;2022-09-02T05:04:28;16.60;99.90
21678;DHT22;11000;50.360;7.582;2022-09-02T05:06:50;16.70;99.90
21678;DHT22;11000;50.360;7.582;2022-09-02T05:09:10;16.70;99.90
21678;DHT22;11000;50.360;7.582;2022-09-02T05:11:31;16.60;99.90
21678;DHT22;11000;50.360;7.582;2022-09-02T05:13:55;16.70;99.90
21678;DHT22;11000;50.360;7.582;2022-09-02T05:16:18;16.60;99.90
21678;DHT22;11000;50.360;7.582;2022-09-02T05:18:39;16.50;99.90
21678;DHT22;11000;50.360;7.582;2022-09-02T05:21:04;16.50;99.90
21678;DHT22;11000;50.360;7.582;2022-09-02T05:23:24;16.50;99.90
21678;DHT22;11000;50.360;7.582;2022-09-02T05:25:45;16.60;99.90
21678;DHT22;11000;50.360;7.582;2022-09-02T05:28:06;16.30;99.90
21678;DHT22;11000;50.360;7.582;2022-09-02T05:30:28;16.20;99.90
21678;DHT22;11000;50.360;7.582;2022-09-02T05:32:48;16.30;99.90
21678;DHT22;11000;50.360;7.582;2022-09-02T05:35:09;16.20;99.90
21678;DHT22;11000;50.360;7.582;2022-09-02T05:37:29;16.10;99.90
21678;DHT22;11000;50.360;7.582;2022-09-02T05:39:51;16.10;99.90
21678;DHT22;11000;50.360;7.582;2022-09-02T05:42:11;16.20;99.90
21678;DHT22;11000;50.360;7.582;2022-09-02T05:44:32;16.20;99.90
21678;DHT22;11000;50.360;7.582;2022-09-02T05:46:53;16.30;99.90
21678;DHT22;11000;50.360;7.582;2022-09-02T05:49:15;16.50;99.90
21678;DHT22;11000;50.360;7.582;2022-09-02T05:51:49;16.40;99.90
21678;DHT22;11000;50.360;7.582;2022-09-02T05:54:18;16.30;99.90
21678;DHT22;11000;50.360;7.582;2022-09-02T05:56:41;16.40;99.90
21678;DHT22;11000;50.360;7.582;2022-09-02T05:59:02;16.60;99.90
21678;DHT22;11000;50.360;7.582;2022-09-02T06:01:23;16.60;99.90
21678;DHT22;11000;50.360;7.582;2022-09-02T06:03:44;16.60;99.90
21678;DHT22;11000;50.360;7.582;2022-09-02T06:06:05;16.60;99.90
21678;DHT22;11000;50.360;7.582;2022-09-02T06:08:26;16.80;99.90
21678;DHT22;11000;50.360;7.582;2022-09-02T06:10:47;16.70;99.90
21678;DHT22;11000;50.360;7.582;2022-09-02T06:13:07;16.80;99.90
21678;DHT22;11000;50.360;7.582;2022-09-02T06:15:30;16.80;99.90
21678;DHT22;11000;50.360;7.582;2022-09-02T06:17:51;17.20;99.90
21678;DHT22;11000;50.360;7.582;2022-09-02T06:20:11;17.60;99.90
21678;DHT22;11000;50.360;7.582;2022-09-02T06:22:32;18.20;99.90
21678;DHT22;11000;50.360;7.582;2022-09-02T06:24:52;18.40;99.90
21678;DHT22;11000;50.360;7.582;2022-09-02T06:27:13;18.80;99.90
21678;DHT22;11000;50.360;7.582;2022-09-02T06:29:34;19.00;99.90
21678;DHT22;11000;50.360;7.582;2022-09-02T06:31:54;19.10;99.90
21678;DHT22;11000;50.360;7.582;2022-09-02T06:34:17;19.40;99.90
21678;DHT22;11000;50.360;7.582;2022-09-02T06:36:39;19.00;99.90
21678;DHT22;11000;50.360;7.582;2022-09-02T06:39:00;19.10;99.90
21678;DHT22;11000;50.360;7.582;2022-09-02T06:41:24;18.50;99.90
21678;DHT22;11000;50.360;7.582;2022-09-02T06:43:47;18.60;99.90
21678;DHT22;11000;50.360;7.582;2022-09-02T06:46:12;19.00;99.90
21678;DHT22;11000;50.360;7.582;2022-09-02T06:48:34;19.00;99.90
21678;DHT22;11000;50.360;7.582;2022-09-02T06:50:54;19.50;99.90
21678;DHT22;11000;50.360;7.582;2022-09-02T06:53:15;19.90;99.90
21678;DHT22;11000;50.360;7.582;2022-09-02T06:55:39;20.00;99.90
21678;DHT22;11000;50.360;7.582;2022-09-02T06:58:00;19.90;99.90
21678;DHT22;11000;50.360;7.582;2022-09-02T07:00:21;20.10;99.90
21678;DHT22;11000;50.360;7.582;2022-09-02T07:02:41;20.30;99.90
21678;DHT22;11000;50.360;7.582;2022-09-02T07:05:03;20.60;99.90
21678;DHT22;11000;50.360;7.582;2022-09-02T07:07:29;21.10;99.90
21678;DHT22;11000;50.360;7.582;2022-09-02T07:09:50;20.70;99.90
21678;DHT22;11000;50.360;7.582;2022-09-02T07:12:11;20.80;99.90
21678;DHT22;11000;50.360;7.582;2022-09-02T07:14:37;20.90;99.90
21678;DHT22;11000;50.360;7.582;2022-09-02T07:16:58;20.90;99.90
21678;DHT22;11000;50.360;7.582;2022-09-02T07:19:19;20.80;99.90
21678;DHT22;11000;50.360;7.582;2022-09-02T07:21:40;21.10;99.90
21678;DHT22;11000;50.360;7.582;2022-09-02T07:24:01;21.20;99.90
21678;DHT22;11000;50.360;7.582;2022-09-02T07:26:22;21.60;99.90
21678;DHT22;11000;50.360;7.582;2022-09-02T07:28:43;22.10;99.90
21678;DHT22;11000;50.360;7.582;2022-09-02T07:31:10;22.20;99.90
21678;DHT22;11000;50.360;7.582;2022-09-02T07:33:30;22.50;99.30
21678;DHT22;11000;50.360;7.582;2022-09-02T07:35:51;22.40;98.40
21678;DHT22;11000;50.360;7.582;2022-09-02T07:38:12;21.90;99.90
21678;DHT22;11000;50.360;7.582;2022-09-02T07:40:33;22.20;99.90
21678;DHT22;11000;50.360;7.582;2022-09-02T07:42:55;22.50;98.80
21678;DHT22;11000;50.360;7.582;2022-09-02T07:45:16;23.00;97.10
21678;DHT22;11000;50.360;7.582;2022-09-02T07:47:36;23.10;95.80
21678;DHT22;11000;50.360;7.582;2022-09-02T07:49:57;23.00;95.10
21678;DHT22;11000;50.360;7.582;2022-09-02T07:52:17;22.70;96.40
21678;DHT22;11000;50.360;7.582;2022-09-02T07:54:38;23.20;94.70
21678;DHT22;11000;50.360;7.582;2022-09-02T07:56:58;22.80;95.50
21678;DHT22;11000;50.360;7.582;2022-09-02T07:59:19;21.90;99.00
21678;DHT22;11000;50.360;7.582;2022-09-02T08:01:41;22.80;97.60
21678;DHT22;11000;50.360;7.582;2022-09-02T08:04:04;23.10;94.90
21678;DHT22;11000;50.360;7.582;2022-09-02T08:06:26;22.90;95.40
21678;DHT22;11000;50.360;7.582;2022-09-02T08:08:48;23.50;93.90
21678;DHT22;11000;50.360;7.582;2022-09-02T08:11:08;23.50;92.80
21678;DHT22;11000;50.360;7.582;2022-09-02T08:13:29;23.30;91.60
21678;DHT22;11000;50.360;7.582;2022-09-02T08:15:50;23.50;91.90
21678;DHT22;11000;50.360;7.582;2022-09-02T08:18:11;23.60;90.80
21678;DHT22;11000;50.360;7.582;2022-09-02T08:20:32;24.10;90.30
21678;DHT22;11000;50.360;7.582;2022-09-02T08:22:53;24.30;85.80
21678;DHT22;11000;50.360;7.582;2022-09-02T08:25:13;24.10;87.00
21678;DHT22;11000;50.360;7.582;2022-09-02T08:27:34;23.50;88.20
21678;DHT22;11000;50.360;7.582;2022-09-02T08:29:55;23.70;90.30
21678;DHT22;11000;50.360;7.582;2022-09-02T08:32:15;23.30;90.90
21678;DHT22;11000;50.360;7.582;2022-09-02T08:34:36;23.70;89.40
21678;DHT22;11000;50.360;7.582;2022-09-02T08:36:56;24.00;86.40
21678;DHT22;11000;50.360;7.582;2022-09-02T08:39:17;23.70;86.30
21678;DHT22;11000;50.360;7.582;2022-09-02T08:44:36;23.90;85.90
21678;DHT22;11000;50.360;7.582;2022-09-02T08:47:01;24.20;84.40
21678;DHT22;11000;50.360;7.582;2022-09-02T08:49:29;24.40;82.20
21678;DHT22;11000;50.360;7.582;2022-09-02T08:51:57;24.70;82.30
21678;DHT22;11000;50.360;7.582;2022-09-02T08:54:51;25.00;80.10
21678;DHT22;11000;50.360;7.582;2022-09-02T08:57:14;25.10;78.70
21678;DHT22;11000;50.360;7.582;2022-09-02T08:59:36;24.60;79.40
21678;DHT22;11000;50.360;7.582;2022-09-02T09:05:06;24.10;81.20
21678;DHT22;11000;50.360;7.582;2022-09-02T09:10:35;24.50;81.30
21678;DHT22;11000;50.360;7.582;2022-09-02T09:13:17;24.50;80.80
21678;DHT22;11000;50.360;7.582;2022-09-02T09:18:13;24.70;78.40
21678;DHT22;11000;50.360;7.582;2022-09-02T09:20:41;25.00;78.80
21678;DHT22;11000;50.360;7.582;2022-09-02T09:23:19;25.10;78.50
21678;DHT22;11000;50.360;7.582;2022-09-02T09:25:41;24.90;78.60
21678;DHT22;11000;50.360;7.582;2022-09-02T09:28:04;24.80;78.30
21678;DHT22;11000;50.360;7.582;2022-09-02T09:30:25;24.60;78.70
21678;DHT22;11000;50.360;7.582;2022-09-02T09:32:49;24.60;79.00
21678;DHT22;11000;50.360;7.582;2022-09-02T09:35:13;24.70;79.30
21678;DHT22;11000;50.360;7.582;2022-09-02T09:37:51;24.70;77.60
21678;DHT22;11000;50.360;7.582;2022-09-02T09:42:39;24.80;78.00
21678;DHT22;11000;50.360;7.582;2022-09-02T09:47:36;24.50;78.90
21678;DHT22;11000;50.360;7.582;2022-09-02T09:50:11;24.30;80.30
21678;DHT22;11000;50.360;7.582;2022-09-02T09:52:32;24.50;79.40
21678;DHT22;11000;50.360;7.582;2022-09-02T09:55:09;24.80;78.20
21678;DHT22;11000;50.360;7.582;2022-09-02T09:57:31;25.00;75.70
21678;DHT22;11000;50.360;7.582;2022-09-02T09:59:51;25.00;74.50
21678;DHT22;11000;50.360;7.582;2022-09-02T10:02:24;24.90;75.70
21678;DHT22;11000;50.360;7.582;2022-09-02T10:04:45;25.10;73.90
21678;DHT22;11000;50.360;7.582;2022-09-02T10:07:10;25.40;72.60
21678;DHT22;11000;50.360;7.582;2022-09-02T10:09:35;25.60;71.60
21678;DHT22;11000;50.360;7.582;2022-09-02T10:12:08;25.40;68.80
21678;DHT22;11000;50.360;7.582;2022-09-02T10:17:45;25.60;66.70
21678;DHT22;11000;50.360;7.582;2022-09-02T10:20:07;25.90;65.90
21678;DHT22;11000;50.360;7.582;2022-09-02T10:25:46;25.90;65.00
21678;DHT22;11000;50.360;7.582;2022-09-02T10:36:16;25.00;55.70
21678;DHT22;11000;50.360;7.582;2022-09-02T10:38:44;25.50;55.70
21678;DHT22;11000;50.360;7.582;2022-09-02T10:41:40;25.50;54.40
21678;DHT22;11000;50.360;7.582;2022-09-02T10:44:26;25.40;55.70
21678;DHT22;11000;50.360;7.582;2022-09-02T10:50:10;26.00;54.00
21678;DHT22;11000;50.360;7.582;2022-09-02T10:52:47;25.90;53.60
21678;DHT22;11000;50.360;7.582;2022-09-02T11:00:25;25.80;53.10
21678;DHT22;11000;50.360;7.582;2022-09-02T11:03:11;25.90;52.90
21678;DHT22;11000;50.360;7.582;2022-09-02T11:05:42;25.40;53.20
21678;DHT22;11000;50.360;7.582;2022-09-02T11:16:17;26.00;53.40
21678;DHT22;11000;50.360;7.582;2022-09-02T11:21:33;26.60;52.60
21678;DHT22;11000;50.360;7.582;2022-09-02T11:26:38;26.00;52.80
21678;DHT22;11000;50.360;7.582;2022-09-02T11:29:06;26.60;52.60
21678;DHT22;11000;50.360;7.582;2022-09-02T11:34:04;26.80;51.60
21678;DHT22;11000;50.360;7.582;2022-09-02T11:36:27;26.70;50.40
21678;DHT22;11000;50.360;7.582;2022-09-02T11:41:57;26.20;50.70
21678;DHT22;11000;50.360;7.582;2022-09-02T11:52:20;26.60;52.30
21678;DHT22;11000;50.360;7.582;2022-09-02T11:54:45;26.90;50.50
21678;DHT22;11000;50.360;7.582;2022-09-02T11:57:12;27.50;50.50
21678;DHT22;11000;50.360;7.582;2022-09-02T12:02:11;26.80;51.00
21678;DHT22;11000;50.360;7.582;2022-09-02T12:04:32;27.00;50.20
21678;DHT22;11000;50.360;7.582;2022-09-02T12:09:48;27.90;48.50
21678;DHT22;11000;50.360;7.582;2022-09-02T12:12:08;28.10;47.60
21678;DHT22;11000;50.360;7.582;2022-09-02T12:14:59;28.40;47.70
21678;DHT22;11000;50.360;7.582;2022-09-02T12:18:04;28.50;47.30
21678;DHT22;11000;50.360;7.582;2022-09-02T12:23:05;27.10;48.30
21678;DHT22;11000;50.360;7.582;2022-09-02T12:27:47;26.40;50.10
21678;DHT22;11000;50.360;7.582;2022-09-02T12:30:11;26.60;50.20
21678;DHT22;11000;50.360;7.582;2022-09-02T12:35:33;27.20;49.40
21678;DHT22;11000;50.360;7.582;2022-09-02T12:38:20;27.40;48.80
21678;DHT22;11000;50.360;7.582;2022-09-02T12:41:12;27.20;47.80
21678;DHT22;11000;50.360;7.582;2022-09-02T12:46:31;28.30;47.50
21678;DHT22;11000;50.360;7.582;2022-09-02T12:54:16;27.40;47.70
21678;DHT22;11000;50.360;7.582;2022-09-02T12:56:37;27.10;48.10
21678;DHT22;11000;50.360;7.582;2022-09-02T12:59:06;27.70;48.40
21678;DHT22;11000;50.360;7.582;2022-09-02T13:01:36;27.70;47.50
21678;DHT22;11000;50.360;7.582;2022-09-02T13:04:30;27.80;47.40
21678;DHT22;11000;50.360;7.582;2022-09-02T13:10:17;27.70;47.60
21678;DHT22;11000;50.360;7.582;2022-09-02T13:26:09;26.70;48.90
21678;DHT22;11000;50.360;7.582;2022-09-02T13:31:16;27.70;47.70
21678;DHT22;11000;50.360;7.582;2022-09-02T13:33:39;28.00;46.80
21678;DHT22;11000;50.360;7.582;2022-09-02T13:36:00;28.40;46.20
21678;DHT22;11000;50.360;7.582;2022-09-02T13:38:23;28.00;45.70
21678;DHT22;11000;50.360;7.582;2022-09-02T13:40:44;27.90;46.90
21678;DHT22;11000;50.360;7.582;2022-09-02T13:45:35;26.50;47.90
21678;DHT22;11000;50.360;7.582;2022-09-02T13:47:58;25.80;49.10
21678;DHT22;11000;50.360;7.582;2022-09-02T13:50:22;26.40;49.40
21678;DHT22;11000;50.360;7.582;2022-09-02T13:52:45;26.80;48.90
21678;DHT22;11000;50.360;7.582;2022-09-02T13:55:10;26.60;47.70
21678;DHT22;11000;50.360;7.582;2022-09-02T13:57:32;27.00;48.00
21678;DHT22;11000;50.360;7.582;2022-09-02T13:59:54;27.10;46.90
21678;DHT22;11000;50.360;7.582;2022-09-02T14:04:37;27.90;46.00
21678;DHT22;11000;50.360;7.582;2022-09-02T14:06:59;27.50;45.70
21678;DHT22;11000;50.360;7.582;2022-09-02T14:09:23;27.40;46.80
21678;DHT22;11000;50.360;7.582;2022-09-02T14:11:45;27.70;46.80
21678;DHT22;11000;50.360;7.582;2022-09-02T14:14:11;28.20;45.90
21678;DHT22;11000;50.360;7.582;2022-09-02T14:16:34;28.50;45.60
21678;DHT22;11000;50.360;7.582;2022-09-02T14:19:10;27.60;45.80
21678;DHT22;11000;50.360;7.582;2022-09-02T14:21:35;27.70;46.60
21678;DHT22;11000;50.360;7.582;2022-09-02T14:23:56;27.70;45.70
21678;DHT22;11000;50.360;7.582;2022-09-02T14:26:46;27.40;46.00
21678;DHT22;11000;50.360;7.582;2022-09-02T14:29:11;27.30;46.60
21678;DHT22;11000;50.360;7.582;2022-09-02T14:31:32;27.40;46.20
21678;DHT22;11000;50.360;7.582;2022-09-02T14:33:53;27.30;46.00
21678;DHT22;11000;50.360;7.582;2022-09-02T14:38:48;26.80;46.70
21678;DHT22;11000;50.360;7.582;2022-09-02T14:41:12;26.80;47.30
21678;DHT22;11000;50.360;7.582;2022-09-02T14:43:46;26.70;46.50
21678;DHT22;11000;50.360;7.582;2022-09-02T14:46:14;26.50;46.80
21678;DHT22;11000;50.360;7.582;2022-09-02T14:48:37;26.90;47.40
21678;DHT22;11000;50.360;7.582;2022-09-02T14:51:00;27.10;46.30
21678;DHT22;11000;50.360;7.582;2022-09-02T14:53:22;27.50;45.80
21678;DHT22;11000;50.360;7.582;2022-09-02T14:55:49;26.90;45.90
21678;DHT22;11000;50.360;7.582;2022-09-02T14:58:11;26.80;46.60
21678;DHT22;11000;50.360;7.582;2022-09-02T15:00:32;26.70;47.10
21678;DHT22;11000;50.360;7.582;2022-09-02T15:02:55;26.80;46.90
21678;DHT22;11000;50.360;7.582;2022-09-02T15:05:16;26.80;46.70
21678;DHT22;11000;50.360;7.582;2022-09-02T15:07:37;27.00;46.40
21678;DHT22;11000;50.360;7.582;2022-09-02T15:09:57;27.00;46.90
21678;DHT22;11000;50.360;7.582;2022-09-02T15:12:20;27.20;47.10
21678;DHT22;11000;50.360;7.582;2022-09-02T15:14:44;27.70;46.50
21678;DHT22;11000;50.360;7.582;2022-09-02T15:17:10;27.60;46.50
21678;DHT22;11000;50.360;7.582;2022-09-02T15:19:31;27.10;46.00
21678;DHT22;11000;50.360;7.582;2022-09-02T15:21:52;27.10;46.70
21678;DHT22;11000;50.360;7.582;2022-09-02T15:24:13;26.90;46.60
21678;DHT22;11000;50.360;7.582;2022-09-02T15:26:33;26.80;47.00
21678;DHT22;11000;50.360;7.582;2022-09-02T15:28:54;26.60;47.20
21678;DHT22;11000;50.360;7.582;2022-09-02T15:31:14;26.40;47.40
21678;DHT22;11000;50.360;7.582;2022-09-02T15:33:35;26.40;47.80
21678;DHT22;11000;50.360;7.582;2022-09-02T15:36:11;26.50;48.00
21678;DHT22;11000;50.360;7.582;2022-09-02T15:38:32;26.30;47.60
21678;DHT22;11000;50.360;7.582;2022-09-02T15:40:52;26.20;48.00
21678;DHT22;11000;50.360;7.582;2022-09-02T15:43:13;26.30;48.50
21678;DHT22;11000;50.360;7.582;2022-09-02T15:45:33;26.60;48.60
21678;DHT22;11000;50.360;7.582;2022-09-02T15:47:57;26.80;48.10
21678;DHT22;11000;50.360;7.582;2022-09-02T15:50:18;26.50;47.70
21678;DHT22;11000;50.360;7.582;2022-09-02T15:52:39;26.40;47.80
21678;DHT22;11000;50.360;7.582;2022-09-02T15:54:59;26.30;48.10
21678;DHT22;11000;50.360;7.582;2022-09-02T15:57:20;26.60;48.40
21678;DHT22;11000;50.360;7.582;2022-09-02T15:59:41;26.60;47.70
21678;DHT22;11000;50.360;7.582;2022-09-02T16:02:01;26.40;48.10
21678;DHT22;11000;50.360;7.582;2022-09-02T16:04:22;26.10;48.40
21678;DHT22;11000;50.360;7.582;2022-09-02T16:06:45;26.20;49.00
21678;DHT22;11000;50.360;7.582;2022-09-02T16:09:09;26.30;48.60
21678;DHT22;11000;50.360;7.582;2022-09-02T16:11:29;26.30;48.80
21678;DHT22;11000;50.360;7.582;2022-09-02T16:13:50;26.40;48.30
21678;DHT22;11000;50.360;7.582;2022-09-02T16:16:11;26.40;48.70
21678;DHT22;11000;50.360;7.582;2022-09-02T16:18:33;26.40;48.50
21678;DHT22;11000;50.360;7.582;2022-09-02T16:20:54;26.40;48.30
21678;DHT22;11000;50.360;7.582;2022-09-02T16:23:15;26.00;48.30
21678;DHT22;11000;50.360;7.582;2022-09-02T16:25:35;26.00;49.00
21678;DHT22;11000;50.360;7.582;2022-09-02T16:27:56;26.00;48.90
21678;DHT22;11000;50.360;7.582;2022-09-02T16:30:16;25.90;48.60
21678;DHT22;11000;50.360;7.582;2022-09-02T16:32:37;25.80;48.90
21678;DHT22;11000;50.360;7.582;2022-09-02T16:34:58;25.80;48.90
21678;DHT22;11000;50.360;7.582;2022-09-02T16:37:18;25.70;49.20
21678;DHT22;11000;50.360;7.582;2022-09-02T16:39:39;25.60;49.60
21678;DHT22;11000;50.360;7.582;2022-09-02T16:41:59;25.50;49.50
21678;DHT22;11000;50.360;7.582;2022-09-02T16:44:24;25.60;49.50
21678;DHT22;11000;50.360;7.582;2022-09-02T16:46:46;25.50;49.30
21678;DHT22;11000;50.360;7.582;2022-09-02T16:49:08;25.60;49.60
21678;DHT22;11000;50.360;7.582;2022-09-02T16:51:30;25.60;49.60
21678;DHT22;11000;50.360;7.582;2022-09-02T16:54:02;25.50;49.70
21678;DHT22;11000;50.360;7.582;2022-09-02T16:56:23;25.50;49.80
21678;DHT22;11000;50.360;7.582;2022-09-02T16:58:45;25.30;49.50
21678;DHT22;11000;50.360;7.582;2022-09-02T17:01:09;25.30;50.20